sensor_id;sensor_type;location;lat;lon;timestamp;pressure;altitude;pressure_sealevel;temperature;humidity
49063;BME280;34876;51.464;-0.150;2023-03-13T00:02:01;99557.29;;;17.53;44.43
49063;BME280;34876;51.464;-0.150;2023-03-13T00:04:31;99552.46;;;17.72;43.76
49063;BME280;34876;51.464;-0.150;2023-03-13T00:07:01;99551.02;;;17.68;43.98
49063;BME280;34876;51.464;-0.150;2023-03-13T00:09:54;99541.81;;;17.18;47.46
49063;BME280;34876;51.464;-0.150;2023-03-13T00:12:28;99537.75;;;17.49;46.47
49063;BME280;34876;51.464;-0.150;2023-03-13T00:14:56;99541.59;;;17.45;44.72
49063;BME280;34876;51.464;-0.150;2023-03-13T00:17:26;99515.15;;;17.66;44.45
49063;BME280;34876;51.464;-0.150;2023-03-13T00:19:56;99508.97;;;17.69;44.19
49063;BME280;34876;51.464;-0.150;2023-03-13T00:22:29;99515.20;;;17.45;45.27
49063;BME280;34876;51.464;-0.150;2023-03-13T00:25:00;99496.41;;;17.23;46.63
49063;BME280;34876;51.464;-0.150;2023-03-13T00:27:32;99493.89;;;17.13;47.71
49063;BME280;34876;51.464;-0.150;2023-03-13T00:30:03;99487.80;;;17.57;45.29
49063;BME280;34876;51.464;-0.150;2023-03-13T00:32:33;99491.80;;;17.43;46.48
49063;BME280;34876;51.464;-0.150;2023-03-13T00:35:04;99491.33;;;17.61;45.35
49063;BME280;34876;51.464;-0.150;2023-03-13T00:37:38;99495.65;;;17.51;45.46
49063;BME280;34876;51.464;-0.150;2023-03-13T00:40:10;99493.45;;;17.45;48.45
49063;BME280;34876;51.464;-0.150;2023-03-13T00:42:39;99487.69;;;17.58;45.03
49063;BME280;34876;51.464;-0.150;2023-03-13T00:45:09;99499.22;;;17.22;51.91
49063;BME280;34876;51.464;-0.150;2023-03-13T00:47:39;99488.36;;;17.04;53.88
49063;BME280;34876;51.464;-0.150;2023-03-13T00:50:09;99472.21;;;17.51;46.47
49063;BME280;34876;51.464;-0.150;2023-03-13T00:52:39;99470.32;;;17.49;45.87
49063;BME280;34876;51.464;-0.150;2023-03-13T00:55:09;99471.98;;;17.62;45.06
49063;BME280;34876;51.464;-0.150;2023-03-13T00:57:38;99479.41;;;16.99;54.86
49063;BME280;34876;51.464;-0.150;2023-03-13T01:00:09;99488.29;;;16.99;54.60
49063;BME280;34876;51.464;-0.150;2023-03-13T01:03:30;99476.60;;;17.44;46.41
49063;BME280;34876;51.464;-0.150;2023-03-13T01:06:02;99475.97;;;17.53;45.44
49063;BME280;34876;51.464;-0.150;2023-03-13T01:08:32;99465.33;;;17.69;45.19
49063;BME280;34876;51.464;-0.150;2023-03-13T01:11:04;99468.60;;;17.34;46.30
49063;BME280;34876;51.464;-0.150;2023-03-13T01:13:34;99445.41;;;17.58;45.42
49063;BME280;34876;51.464;-0.150;2023-03-13T01:16:07;99452.76;;;16.86;47.86
49063;BME280;34876;51.464;-0.150;2023-03-13T01:18:39;99468.32;;;17.19;46.55
49063;BME280;34876;51.464;-0.150;2023-03-13T01:21:09;99451.10;;;17.71;44.74
49063;BME280;34876;51.464;-0.150;2023-03-13T01:23:39;99463.24;;;17.36;53.06
49063;BME280;34876;51.464;-0.150;2023-03-13T01:26:08;99462.73;;;17.31;54.33
49063;BME280;34876;51.464;-0.150;2023-03-13T01:28:38;99465.37;;;17.64;45.24
49063;BME280;34876;51.464;-0.150;2023-03-13T01:31:11;99471.22;;;17.49;45.53
49063;BME280;34876;51.464;-0.150;2023-03-13T01:33:47;99470.73;;;17.26;47.30
49063;BME280;34876;51.464;-0.150;2023-03-13T01:36:18;99476.14;;;17.14;46.63
49063;BME280;34876;51.464;-0.150;2023-03-13T01:38:50;99462.17;;;17.49;46.25
49063;BME280;34876;51.464;-0.150;2023-03-13T01:41:21;99465.66;;;17.20;54.35
49063;BME280;34876;51.464;-0.150;2023-03-13T01:43:51;99455.14;;;16.98;52.03
49063;BME280;34876;51.464;-0.150;2023-03-13T01:46:22;99446.79;;;17.46;45.76
49063;BME280;34876;51.464;-0.150;2023-03-13T01:48:53;99443.43;;;16.86;48.31
49063;BME280;34876;51.464;-0.150;2023-03-13T01:51:29;99426.57;;;17.51;46.08
49063;BME280;34876;51.464;-0.150;2023-03-13T01:54:04;99432.14;;;17.64;45.35
49063;BME280;34876;51.464;-0.150;2023-03-13T01:56:39;99427.64;;;17.37;50.15
49063;BME280;34876;51.464;-0.150;2023-03-13T01:59:13;99419.33;;;17.66;45.86
49063;BME280;34876;51.464;-0.150;2023-03-13T02:01:45;99409.88;;;17.74;49.19
49063;BME280;34876;51.464;-0.150;2023-03-13T02:04:18;99395.66;;;17.08;48.34
49063;BME280;34876;51.464;-0.150;2023-03-13T02:06:51;99382.22;;;17.27;51.76
49063;BME280;34876;51.464;-0.150;2023-03-13T02:09:24;99392.09;;;17.29;47.07
49063;BME280;34876;51.464;-0.150;2023-03-13T02:12:00;99391.95;;;17.64;45.73
49063;BME280;34876;51.464;-0.150;2023-03-13T02:14:33;99392.48;;;17.67;45.36
49063;BME280;34876;51.464;-0.150;2023-03-13T02:17:04;99390.38;;;17.51;51.75
49063;BME280;34876;51.464;-0.150;2023-03-13T02:19:39;99388.82;;;17.49;46.45
49063;BME280;34876;51.464;-0.150;2023-03-13T02:22:16;99396.29;;;17.44;50.28
49063;BME280;34876;51.464;-0.150;2023-03-13T02:24:51;99381.33;;;17.73;52.97
49063;BME280;34876;51.464;-0.150;2023-03-13T02:27:26;99370.04;;;17.74;45.84
49063;BME280;34876;51.464;-0.150;2023-03-13T02:29:56;99371.21;;;16.76;50.35
49063;BME280;34876;51.464;-0.150;2023-03-13T02:32:29;99359.43;;;17.37;50.14
49063;BME280;34876;51.464;-0.150;2023-03-13T02:35:05;99358.16;;;17.30;52.43
49063;BME280;34876;51.464;-0.150;2023-03-13T02:37:36;99351.48;;;17.47;54.46
49063;BME280;34876;51.464;-0.150;2023-03-13T02:40:11;99346.91;;;17.84;45.00
49063;BME280;34876;51.464;-0.150;2023-03-13T02:42:44;99339.82;;;17.69;45.98
49063;BME280;34876;51.464;-0.150;2023-03-13T02:45:15;99346.94;;;17.59;46.11
49063;BME280;34876;51.464;-0.150;2023-03-13T02:47:45;99329.77;;;17.21;53.17
49063;BME280;34876;51.464;-0.150;2023-03-13T02:50:14;99336.77;;;17.37;53.04
49063;BME280;34876;51.464;-0.150;2023-03-13T02:52:45;99329.92;;;17.83;45.60
49063;BME280;34876;51.464;-0.150;2023-03-13T02:55:17;99325.83;;;17.52;52.25
49063;BME280;34876;51.464;-0.150;2023-03-13T02:57:51;99322.82;;;17.73;45.57
49063;BME280;34876;51.464;-0.150;2023-03-13T03:00:19;99317.69;;;17.86;44.65
49063;BME280;34876;51.464;-0.150;2023-03-13T03:02:48;99316.36;;;17.66;45.98
49063;BME280;34876;51.464;-0.150;2023-03-13T03:05:16;99303.19;;;18.04;45.62
49063;BME280;34876;51.464;-0.150;2023-03-13T03:07:46;99309.11;;;17.58;46.41
49063;BME280;34876;51.464;-0.150;2023-03-13T03:10:15;99301.12;;;17.31;47.25
49063;BME280;34876;51.464;-0.150;2023-03-13T03:12:46;99303.25;;;17.70;45.66
49063;BME280;34876;51.464;-0.150;2023-03-13T03:15:15;99300.73;;;17.76;45.77
49063;BME280;34876;51.464;-0.150;2023-03-13T03:17:45;99303.11;;;17.57;45.59
49063;BME280;34876;51.464;-0.150;2023-03-13T03:20:15;99299.68;;;17.34;47.15
49063;BME280;34876;51.464;-0.150;2023-03-13T03:22:45;99296.71;;;17.63;46.24
49063;BME280;34876;51.464;-0.150;2023-03-13T03:25:15;99288.68;;;17.91;44.48
49063;BME280;34876;51.464;-0.150;2023-03-13T03:27:44;99295.71;;;17.58;46.45
49063;BME280;34876;51.464;-0.150;2023-03-13T03:30:18;99288.69;;;17.50;46.71
49063;BME280;34876;51.464;-0.150;2023-03-13T03:32:48;99280.90;;;17.84;45.98
49063;BME280;34876;51.464;-0.150;2023-03-13T03:35:17;99277.42;;;17.75;46.14
49063;BME280;34876;51.464;-0.150;2023-03-13T03:37:46;99286.39;;;17.88;45.10
49063;BME280;34876;51.464;-0.150;2023-03-13T03:40:17;99275.35;;;17.78;46.15
49063;BME280;34876;51.464;-0.150;2023-03-13T03:42:46;99274.40;;;17.89;45.15
49063;BME280;34876;51.464;-0.150;2023-03-13T03:45:15;99276.00;;;17.57;46.03
49063;BME280;34876;51.464;-0.150;2023-03-13T03:47:45;99271.79;;;17.91;45.01
49063;BME280;34876;51.464;-0.150;2023-03-13T03:50:14;99273.79;;;17.91;45.41
49063;BME280;34876;51.464;-0.150;2023-03-13T03:52:43;99265.83;;;17.98;45.13
49063;BME280;34876;51.464;-0.150;2023-03-13T03:55:12;99259.09;;;17.56;45.96
49063;BME280;34876;51.464;-0.150;2023-03-13T03:57:41;99261.73;;;17.74;49.07
49063;BME280;34876;51.464;-0.150;2023-03-13T04:00:11;99261.68;;;17.14;49.45
49063;BME280;34876;51.464;-0.150;2023-03-13T04:02:41;99257.41;;;17.75;45.54
49063;BME280;34876;51.464;-0.150;2023-03-13T04:05:10;99266.91;;;18.06;45.58
49063;BME280;34876;51.464;-0.150;2023-03-13T04:07:39;99287.25;;;17.55;46.02
49063;BME280;34876;51.464;-0.150;2023-03-13T04:10:13;99284.58;;;17.73;45.95
49063;BME280;34876;51.464;-0.150;2023-03-13T04:12:43;99284.34;;;17.47;47.32
49063;BME280;34876;51.464;-0.150;2023-03-13T04:15:12;99275.15;;;17.03;51.95
49063;BME280;34876;51.464;-0.150;2023-03-13T04:17:41;99273.42;;;16.84;51.40
49063;BME280;34876;51.464;-0.150;2023-03-13T04:20:10;99274.28;;;17.59;46.94
49063;BME280;34876;51.464;-0.150;2023-03-13T04:22:40;99284.60;;;17.66;46.19
49063;BME280;34876;51.464;-0.150;2023-03-13T04:25:11;99268.00;;;17.49;47.36
49063;BME280;34876;51.464;-0.150;2023-03-13T04:27:40;99268.29;;;17.50;50.29
49063;BME280;34876;51.464;-0.150;2023-03-13T04:30:10;99273.04;;;17.68;47.58
49063;BME280;34876;51.464;-0.150;2023-03-13T04:32:40;99266.24;;;17.84;46.18
49063;BME280;34876;51.464;-0.150;2023-03-13T04:35:09;99270.50;;;17.99;45.67
49063;BME280;34876;51.464;-0.150;2023-03-13T04:37:38;99261.94;;;17.99;45.74
49063;BME280;34876;51.464;-0.150;2023-03-13T04:40:09;99253.58;;;17.65;46.25
49063;BME280;34876;51.464;-0.150;2023-03-13T04:42:41;99237.79;;;17.66;48.50
49063;BME280;34876;51.464;-0.150;2023-03-13T04:45:11;99229.06;;;18.00;45.35
49063;BME280;34876;51.464;-0.150;2023-03-13T04:47:40;99231.00;;;17.95;45.29
49063;BME280;34876;51.464;-0.150;2023-03-13T04:50:10;99228.35;;;17.53;46.08
49063;BME280;34876;51.464;-0.150;2023-03-13T04:52:39;99222.01;;;17.45;48.85
49063;BME280;34876;51.464;-0.150;2023-03-13T04:55:08;99222.07;;;17.70;46.49
49063;BME280;34876;51.464;-0.150;2023-03-13T04:57:37;99206.68;;;17.91;49.26
49063;BME280;34876;51.464;-0.150;2023-03-13T05:00:08;99197.38;;;17.82;45.88
49063;BME280;34876;51.464;-0.150;2023-03-13T05:02:38;99186.45;;;17.87;47.08
49063;BME280;34876;51.464;-0.150;2023-03-13T05:05:13;99189.98;;;17.78;46.55
49063;BME280;34876;51.464;-0.150;2023-03-13T05:07:44;99189.83;;;17.59;46.63
49063;BME280;34876;51.464;-0.150;2023-03-13T05:10:13;99183.46;;;17.89;45.74
49063;BME280;34876;51.464;-0.150;2023-03-13T05:12:43;99202.72;;;17.73;46.18
49063;BME280;34876;51.464;-0.150;2023-03-13T05:15:11;99220.01;;;17.68;48.61
49063;BME280;34876;51.464;-0.150;2023-03-13T05:17:41;99200.11;;;17.89;45.77
49063;BME280;34876;51.464;-0.150;2023-03-13T05:20:12;99217.04;;;17.83;45.71
49063;BME280;34876;51.464;-0.150;2023-03-13T05:22:42;99194.56;;;17.81;46.76
49063;BME280;34876;51.464;-0.150;2023-03-13T05:25:11;99203.97;;;17.99;45.21
49063;BME280;34876;51.464;-0.150;2023-03-13T05:27:41;99199.53;;;17.60;48.44
49063;BME280;34876;51.464;-0.150;2023-03-13T05:30:11;99218.89;;;17.13;51.52
49063;BME280;34876;51.464;-0.150;2023-03-13T05:32:41;99209.68;;;17.46;47.34
49063;BME280;34876;51.464;-0.150;2023-03-13T05:35:10;99202.67;;;18.03;45.60
49063;BME280;34876;51.464;-0.150;2023-03-13T05:37:42;99202.18;;;17.39;47.77
49063;BME280;34876;51.464;-0.150;2023-03-13T05:40:13;99198.30;;;17.46;47.31
49063;BME280;34876;51.464;-0.150;2023-03-13T05:42:44;99193.65;;;18.01;46.37
49063;BME280;34876;51.464;-0.150;2023-03-13T05:45:13;99189.12;;;17.66;46.19
49063;BME280;34876;51.464;-0.150;2023-03-13T05:47:43;99181.13;;;17.79;46.73
49063;BME280;34876;51.464;-0.150;2023-03-13T05:50:13;99185.46;;;17.46;47.41
49063;BME280;34876;51.464;-0.150;2023-03-13T05:52:43;99184.26;;;17.66;47.12
49063;BME280;34876;51.464;-0.150;2023-03-13T05:55:12;99178.85;;;17.88;46.59
49063;BME280;34876;51.464;-0.150;2023-03-13T05:57:43;99179.19;;;18.11;47.01
49063;BME280;34876;51.464;-0.150;2023-03-13T06:00:14;99190.59;;;17.58;47.42
49063;BME280;34876;51.464;-0.150;2023-03-13T06:02:45;99195.07;;;17.46;47.57
49063;BME280;34876;51.464;-0.150;2023-03-13T06:05:14;99194.91;;;17.92;46.82
49063;BME280;34876;51.464;-0.150;2023-03-13T06:07:43;99196.57;;;17.95;46.90
49063;BME280;34876;51.464;-0.150;2023-03-13T06:10:12;99208.72;;;17.86;47.01
49063;BME280;34876;51.464;-0.150;2023-03-13T06:12:41;99206.25;;;17.63;47.34
49063;BME280;34876;51.464;-0.150;2023-03-13T06:15:11;99202.14;;;17.47;51.14
49063;BME280;34876;51.464;-0.150;2023-03-13T06:17:39;99207.25;;;18.01;46.15
49063;BME280;34876;51.464;-0.150;2023-03-13T06:20:10;99194.94;;;17.84;47.31
49063;BME280;34876;51.464;-0.150;2023-03-13T06:22:40;99200.72;;;17.65;49.37
49063;BME280;34876;51.464;-0.150;2023-03-13T06:25:10;99194.52;;;17.64;46.71
49063;BME280;34876;51.464;-0.150;2023-03-13T06:27:40;99200.43;;;17.92;46.32
49063;BME280;34876;51.464;-0.150;2023-03-13T06:30:11;99196.24;;;17.88;46.56
49063;BME280;34876;51.464;-0.150;2023-03-13T06:32:40;99196.86;;;17.86;46.46
49063;BME280;34876;51.464;-0.150;2023-03-13T06:35:09;99202.44;;;17.26;50.75
49063;BME280;34876;51.464;-0.150;2023-03-13T06:37:38;99194.68;;;17.74;48.35
49063;BME280;34876;51.464;-0.150;2023-03-13T06:40:09;99188.37;;;17.71;47.10
49063;BME280;34876;51.464;-0.150;2023-03-13T06:42:40;99186.48;;;18.01;46.07
49063;BME280;34876;51.464;-0.150;2023-03-13T06:45:09;99176.69;;;17.92;46.07
49063;BME280;34876;51.464;-0.150;2023-03-13T06:47:39;99176.55;;;17.96;47.90
49063;BME280;34876;51.464;-0.150;2023-03-13T06:50:10;99175.24;;;17.67;48.09
49063;BME280;34876;51.464;-0.150;2023-03-13T06:52:40;99167.81;;;18.02;46.08
49063;BME280;34876;51.464;-0.150;2023-03-13T06:55:10;99179.48;;;17.85;47.30
49063;BME280;34876;51.464;-0.150;2023-03-13T06:57:41;99171.98;;;17.99;46.42
49063;BME280;34876;51.464;-0.150;2023-03-13T07:00:11;99170.27;;;17.60;47.94
49063;BME280;34876;51.464;-0.150;2023-03-13T07:02:40;99167.85;;;17.89;46.43
49063;BME280;34876;51.464;-0.150;2023-03-13T07:05:09;99161.68;;;17.33;48.97
49063;BME280;34876;51.464;-0.150;2023-03-13T07:07:43;99157.30;;;17.49;47.80
49063;BME280;34876;51.464;-0.150;2023-03-13T07:10:12;99143.16;;;17.47;48.02
49063;BME280;34876;51.464;-0.150;2023-03-13T07:12:42;99146.78;;;17.83;47.17
49063;BME280;34876;51.464;-0.150;2023-03-13T07:15:12;99135.04;;;17.77;47.06
49063;BME280;34876;51.464;-0.150;2023-03-13T07:17:40;99146.11;;;17.36;48.23
49063;BME280;34876;51.464;-0.150;2023-03-13T07:20:11;99144.96;;;17.62;48.02
49063;BME280;34876;51.464;-0.150;2023-03-13T07:22:40;99137.48;;;17.25;48.33
49063;BME280;34876;51.464;-0.150;2023-03-13T07:25:10;99137.14;;;18.00;46.62
49063;BME280;34876;51.464;-0.150;2023-03-13T07:27:40;99131.00;;;17.78;47.67
49063;BME280;34876;51.464;-0.150;2023-03-13T07:30:11;99119.16;;;17.40;47.87
49063;BME280;34876;51.464;-0.150;2023-03-13T07:32:40;99117.07;;;17.78;47.41
49063;BME280;34876;51.464;-0.150;2023-03-13T07:35:10;99121.42;;;17.73;47.42
49063;BME280;34876;51.464;-0.150;2023-03-13T07:37:40;99113.85;;;17.56;48.15
49063;BME280;34876;51.464;-0.150;2023-03-13T07:40:11;99112.85;;;17.65;47.82
49063;BME280;34876;51.464;-0.150;2023-03-13T07:42:41;99114.32;;;17.81;46.38
49063;BME280;34876;51.464;-0.150;2023-03-13T07:45:11;99117.81;;;17.87;46.64
49063;BME280;34876;51.464;-0.150;2023-03-13T07:47:40;99110.26;;;17.63;47.42
49063;BME280;34876;51.464;-0.150;2023-03-13T07:50:10;99113.62;;;17.85;47.16
49063;BME280;34876;51.464;-0.150;2023-03-13T07:52:40;99097.35;;;17.88;47.51
49063;BME280;34876;51.464;-0.150;2023-03-13T07:55:10;99105.12;;;18.28;46.86
49063;BME280;34876;51.464;-0.150;2023-03-13T07:57:40;99104.50;;;17.70;47.15
49063;BME280;34876;51.464;-0.150;2023-03-13T08:00:11;99105.72;;;18.11;46.43
49063;BME280;34876;51.464;-0.150;2023-03-13T08:02:41;99100.84;;;17.76;47.29
49063;BME280;34876;51.464;-0.150;2023-03-13T08:05:09;99094.76;;;17.92;46.70
49063;BME280;34876;51.464;-0.150;2023-03-13T08:07:38;99102.05;;;17.75;47.18
49063;BME280;34876;51.464;-0.150;2023-03-13T08:10:09;99086.99;;;17.06;48.60
49063;BME280;34876;51.464;-0.150;2023-03-13T08:12:38;99098.44;;;17.71;47.71
49063;BME280;34876;51.464;-0.150;2023-03-13T08:15:08;99101.76;;;17.38;49.35
49063;BME280;34876;51.464;-0.150;2023-03-13T08:17:42;99106.64;;;17.67;48.07
49063;BME280;34876;51.464;-0.150;2023-03-13T08:20:13;99096.59;;;17.86;47.59
49063;BME280;34876;51.464;-0.150;2023-03-13T08:22:42;99107.26;;;17.98;46.71
49063;BME280;34876;51.464;-0.150;2023-03-13T08:25:11;99088.81;;;17.70;47.63
49063;BME280;34876;51.464;-0.150;2023-03-13T08:27:40;99094.91;;;17.89;47.73
49063;BME280;34876;51.464;-0.150;2023-03-13T08:30:11;99089.46;;;17.81;46.74
49063;BME280;34876;51.464;-0.150;2023-03-13T08:32:40;99087.58;;;17.85;47.63
49063;BME280;34876;51.464;-0.150;2023-03-13T08:35:10;99081.98;;;17.82;47.92
49063;BME280;34876;51.464;-0.150;2023-03-13T08:37:39;99084.61;;;18.12;46.79
49063;BME280;34876;51.464;-0.150;2023-03-13T08:40:10;99082.86;;;18.11;47.14
49063;BME280;34876;51.464;-0.150;2023-03-13T08:42:40;99080.06;;;17.84;47.12
49063;BME280;34876;51.464;-0.150;2023-03-13T08:45:09;99086.54;;;17.92;48.12
49063;BME280;34876;51.464;-0.150;2023-03-13T08:47:39;99075.20;;;18.12;47.83
49063;BME280;34876;51.464;-0.150;2023-03-13T08:50:09;99082.24;;;17.85;47.86
49063;BME280;34876;51.464;-0.150;2023-03-13T08:52:38;99077.87;;;17.79;46.25
49063;BME280;34876;51.464;-0.150;2023-03-13T08:55:08;99074.68;;;18.06;47.42
49063;BME280;34876;51.464;-0.150;2023-03-13T08:57:37;99080.52;;;18.08;46.62
49063;BME280;34876;51.464;-0.150;2023-03-13T09:00:07;99081.92;;;17.72;47.93
49063;BME280;34876;51.464;-0.150;2023-03-13T09:02:36;99083.45;;;17.75;47.40
49063;BME280;34876;51.464;-0.150;2023-03-13T09:05:06;99074.30;;;17.60;48.59
49063;BME280;34876;51.464;-0.150;2023-03-13T09:07:36;99080.17;;;17.73;47.36
49063;BME280;34876;51.464;-0.150;2023-03-13T09:10:06;99084.71;;;17.97;47.37
49063;BME280;34876;51.464;-0.150;2023-03-13T09:12:37;99069.08;;;18.15;46.62
49063;BME280;34876;51.464;-0.150;2023-03-13T09:15:08;99080.28;;;18.30;46.28
49063;BME280;34876;51.464;-0.150;2023-03-13T09:17:37;99060.07;;;17.91;47.43
49063;BME280;34876;51.464;-0.150;2023-03-13T09:20:08;99067.10;;;18.15;47.08
49063;BME280;34876;51.464;-0.150;2023-03-13T09:22:37;99052.73;;;18.05;47.22
49063;BME280;34876;51.464;-0.150;2023-03-13T09:25:06;99053.99;;;17.69;48.12
49063;BME280;34876;51.464;-0.150;2023-03-13T09:27:36;99048.34;;;18.26;46.63
49063;BME280;34876;51.464;-0.150;2023-03-13T09:30:07;99050.07;;;18.11;46.95
49063;BME280;34876;51.464;-0.150;2023-03-13T09:32:37;99072.19;;;18.16;47.23
49063;BME280;34876;51.464;-0.150;2023-03-13T09:35:06;99060.16;;;18.36;46.48
49063;BME280;34876;51.464;-0.150;2023-03-13T09:37:35;99057.01;;;18.36;46.53
49063;BME280;34876;51.464;-0.150;2023-03-13T09:40:05;99049.17;;;18.07;46.75
49063;BME280;34876;51.464;-0.150;2023-03-13T09:42:42;99051.72;;;18.03;46.54
49063;BME280;34876;51.464;-0.150;2023-03-13T09:45:17;99043.58;;;18.13;47.25
49063;BME280;34876;51.464;-0.150;2023-03-13T09:47:53;99051.23;;;17.77;47.79
49063;BME280;34876;51.464;-0.150;2023-03-13T09:50:27;99044.84;;;17.98;47.55
49063;BME280;34876;51.464;-0.150;2023-03-13T09:53:02;99042.01;;;17.98;47.48
49063;BME280;34876;51.464;-0.150;2023-03-13T09:55:35;99052.06;;;17.79;48.20
49063;BME280;34876;51.464;-0.150;2023-03-13T09:58:12;99034.17;;;18.27;45.91
49063;BME280;34876;51.464;-0.150;2023-03-13T10:00:46;99065.92;;;18.29;46.72
49063;BME280;34876;51.464;-0.150;2023-03-13T10:03:21;99059.74;;;18.40;46.34
49063;BME280;34876;51.464;-0.150;2023-03-13T10:05:53;99067.52;;;18.20;46.41
49063;BME280;34876;51.464;-0.150;2023-03-13T10:08:24;99059.30;;;18.27;46.41
49063;BME280;34876;51.464;-0.150;2023-03-13T10:10:58;99070.82;;;18.52;44.74
49063;BME280;34876;51.464;-0.150;2023-03-13T10:13:36;99046.11;;;18.21;45.34
49063;BME280;34876;51.464;-0.150;2023-03-13T10:16:09;99045.65;;;18.43;46.12
49063;BME280;34876;51.464;-0.150;2023-03-13T10:18:43;99056.86;;;18.37;46.35
49063;BME280;34876;51.464;-0.150;2023-03-13T10:21:18;99062.33;;;18.35;46.36
49063;BME280;34876;51.464;-0.150;2023-03-13T10:23:50;99069.50;;;18.45;45.50
49063;BME280;34876;51.464;-0.150;2023-03-13T10:26:25;99052.48;;;18.45;46.29
49063;BME280;34876;51.464;-0.150;2023-03-13T10:28:56;99066.71;;;18.59;46.21
49063;BME280;34876;51.464;-0.150;2023-03-13T10:31:30;99064.53;;;17.53;48.19
49063;BME280;34876;51.464;-0.150;2023-03-13T10:34:09;99061.77;;;18.46;46.23
49063;BME280;34876;51.464;-0.150;2023-03-13T10:36:39;99065.43;;;18.20;45.65
49063;BME280;34876;51.464;-0.150;2023-03-13T10:39:15;99067.46;;;18.31;45.39
49063;BME280;34876;51.464;-0.150;2023-03-13T10:41:44;99074.13;;;18.34;46.77
49063;BME280;34876;51.464;-0.150;2023-03-13T10:44:16;99075.90;;;18.37;47.10
49063;BME280;34876;51.464;-0.150;2023-03-13T10:46:47;99079.36;;;18.43;46.65
49063;BME280;34876;51.464;-0.150;2023-03-13T10:49:19;99089.62;;;18.53;46.04
49063;BME280;34876;51.464;-0.150;2023-03-13T10:51:50;99079.41;;;18.15;45.77
49063;BME280;34876;51.464;-0.150;2023-03-13T10:54:21;99084.02;;;17.96;46.72
49063;BME280;34876;51.464;-0.150;2023-03-13T10:57:08;99086.54;;;18.30;46.68
49063;BME280;34876;51.464;-0.150;2023-03-13T10:59:41;99074.91;;;18.44;46.97
49063;BME280;34876;51.464;-0.150;2023-03-13T11:02:22;99076.72;;;18.37;47.29
49063;BME280;34876;51.464;-0.150;2023-03-13T11:04:53;99087.83;;;17.97;46.22
49063;BME280;34876;51.464;-0.150;2023-03-13T11:07:27;99082.43;;;18.51;46.05
49063;BME280;34876;51.464;-0.150;2023-03-13T11:09:58;99100.09;;;18.64;45.91
49063;BME280;34876;51.464;-0.150;2023-03-13T11:12:33;99094.70;;;18.68;46.02
49063;BME280;34876;51.464;-0.150;2023-03-13T11:15:05;99091.23;;;18.62;44.99
49063;BME280;34876;51.464;-0.150;2023-03-13T11:17:41;99099.29;;;18.51;46.34
49063;BME280;34876;51.464;-0.150;2023-03-13T11:20:20;99100.19;;;18.50;45.91
49063;BME280;34876;51.464;-0.150;2023-03-13T11:22:59;99089.91;;;18.37;44.30
49063;BME280;34876;51.464;-0.150;2023-03-13T11:25:36;99088.14;;;18.05;46.85
49063;BME280;34876;51.464;-0.150;2023-03-13T11:28:19;99100.44;;;18.31;46.85
49063;BME280;34876;51.464;-0.150;2023-03-13T11:30:59;99095.89;;;18.70;46.06
49063;BME280;34876;51.464;-0.150;2023-03-13T11:33:38;99088.39;;;18.54;45.98
49063;BME280;34876;51.464;-0.150;2023-03-13T11:36:18;99087.53;;;18.30;46.26
49063;BME280;34876;51.464;-0.150;2023-03-13T11:38:52;99089.49;;;18.51;46.26
49063;BME280;34876;51.464;-0.150;2023-03-13T11:41:32;99091.65;;;18.46;44.27
49063;BME280;34876;51.464;-0.150;2023-03-13T11:44:22;99099.24;;;18.38;44.26
49063;BME280;34876;51.464;-0.150;2023-03-13T11:47:00;99095.67;;;18.53;45.59
49063;BME280;34876;51.464;-0.150;2023-03-13T11:49:45;99078.15;;;18.37;46.37
49063;BME280;34876;51.464;-0.150;2023-03-13T11:52:24;99086.83;;;18.61;45.61
49063;BME280;34876;51.464;-0.150;2023-03-13T11:55:17;99084.17;;;18.56;45.83
49063;BME280;34876;51.464;-0.150;2023-03-13T11:57:58;99066.27;;;18.47;46.20
49063;BME280;34876;51.464;-0.150;2023-03-13T12:00:35;99070.15;;;18.36;45.85
49063;BME280;34876;51.464;-0.150;2023-03-13T12:03:13;99068.82;;;18.57;45.90
49063;BME280;34876;51.464;-0.150;2023-03-13T12:05:47;99066.51;;;18.58;45.45
49063;BME280;34876;51.464;-0.150;2023-03-13T12:08:19;99064.04;;;18.30;45.91
49063;BME280;34876;51.464;-0.150;2023-03-13T12:10:58;99065.89;;;18.04;46.20
49063;BME280;34876;51.464;-0.150;2023-03-13T12:13:33;99062.07;;;18.32;46.18
49063;BME280;34876;51.464;-0.150;2023-03-13T12:16:11;99057.78;;;18.50;46.18
49063;BME280;34876;51.464;-0.150;2023-03-13T12:18:43;99053.76;;;18.54;46.01
49063;BME280;34876;51.464;-0.150;2023-03-13T12:21:21;99048.96;;;18.36;46.61
49063;BME280;34876;51.464;-0.150;2023-03-13T12:24:01;99059.00;;;18.33;46.34
49063;BME280;34876;51.464;-0.150;2023-03-13T12:26:38;99040.86;;;18.17;46.53
49063;BME280;34876;51.464;-0.150;2023-03-13T12:29:15;99049.76;;;18.40;46.48
49063;BME280;34876;51.464;-0.150;2023-03-13T12:31:51;99032.61;;;18.43;46.54
49063;BME280;34876;51.464;-0.150;2023-03-13T12:34:28;99040.69;;;18.34;46.79
49063;BME280;34876;51.464;-0.150;2023-03-13T12:37:02;99036.88;;;18.51;46.11
49063;BME280;34876;51.464;-0.150;2023-03-13T12:39:41;99027.25;;;18.55;46.01
49063;BME280;34876;51.464;-0.150;2023-03-13T12:42:22;99029.20;;;18.58;45.80
49063;BME280;34876;51.464;-0.150;2023-03-13T12:44:55;99023.93;;;18.05;44.66
49063;BME280;34876;51.464;-0.150;2023-03-13T12:47:30;99020.27;;;18.50;46.30
49063;BME280;34876;51.464;-0.150;2023-03-13T12:50:12;99017.04;;;18.29;46.43
49063;BME280;34876;51.464;-0.150;2023-03-13T12:52:53;99008.87;;;18.25;45.28
49063;BME280;34876;51.464;-0.150;2023-03-13T12:58:12;99003.05;;;18.39;46.21
49063;BME280;34876;51.464;-0.150;2023-03-13T13:00:46;99004.16;;;18.08;44.95
49063;BME280;34876;51.464;-0.150;2023-03-13T13:03:25;99007.99;;;18.19;46.94
49063;BME280;34876;51.464;-0.150;2023-03-13T13:06:02;99009.19;;;18.19;47.03
49063;BME280;34876;51.464;-0.150;2023-03-13T13:08:36;98990.51;;;18.20;46.95
49063;BME280;34876;51.464;-0.150;2023-03-13T13:11:44;98997.53;;;18.11;47.08
49063;BME280;34876;51.464;-0.150;2023-03-13T13:15:13;98992.33;;;17.92;44.72
49063;BME280;34876;51.464;-0.150;2023-03-13T13:17:56;98989.11;;;18.18;46.62
49063;BME280;34876;51.464;-0.150;2023-03-13T13:20:36;98991.76;;;18.39;46.29